Time;durP1;ratioP1;P1;durP2;ratioP2;P2;SDS_P1;SDS_P2;PMS_P1;PMS_P2;Temp;Humidity;BMP_temperature;BMP_pressure;BME280_temperature;BME280_humidity;BME280_pressure;Samples;Min_cycle;Max_cycle;Signal;HPM_P1;HPM_P2
2023/01/14 00:01:20;;;;;;;23.43;11.40;;;8.90;95.20;;;;;;5072500;28;20235;-79
2023/01/14 00:03:49;;;;;;;23.10;11.33;;;8.90;95.20;;;;;;5065902;28;20194;-79
2023/01/14 00:06:21;;;;;;;27.87;13.27;;;8.90;95.20;;;;;;5065903;28;20218;-77
2023/01/14 00:08:54;;;;;;;25.07;10.60;;;8.90;95.10;;;;;;5070793;28;20198;-77
2023/01/14 00:11:45;;;;;;;24.77;11.90;;;8.90;95.10;;;;;;5058558;28;20182;-78
2023/01/14 00:14:13;;;;;;;23.13;10.30;;;8.90;95.10;;;;;;5064294;28;20554;-78
2023/01/14 00:16:43;;;;;;;21.20;10.70;;;8.90;95.10;;;;;;5065405;28;20608;-77
2023/01/14 00:19:12;;;;;;;25.80;12.40;;;8.90;95.20;;;;;;5062149;28;20443;-77
2023/01/14 00:21:41;;;;;;;22.50;11.13;;;8.90;95.40;;;;;;5059260;28;20244;-77
2023/01/14 00:24:10;;;;;;;22.63;10.97;;;8.90;95.30;;;;;;5067213;28;20647;-78
2023/01/14 00:26:39;;;;;;;23.97;12.00;;;8.90;95.30;;;;;;5064502;28;20191;-78
2023/01/14 00:29:09;;;;;;;24.80;11.13;;;9.00;95.30;;;;;;5062096;28;20272;-76
2023/01/14 00:31:37;;;;;;;26.80;12.13;;;8.90;95.30;;;;;;5062860;28;20225;-77
2023/01/14 00:34:07;;;;;;;22.50;10.53;;;8.90;95.30;;;;;;5066942;28;20274;-78
2023/01/14 00:36:35;;;;;;;22.20;11.13;;;8.90;95.20;;;;;;5060277;28;20204;-78
2023/01/14 00:39:04;;;;;;;23.20;11.07;;;8.90;95.20;;;;;;5064739;28;20191;-78
2023/01/14 00:41:32;;;;;;;26.90;12.37;;;8.90;95.20;;;;;;5063254;28;20480;-77
2023/01/14 00:44:01;;;;;;;22.83;11.70;;;8.90;95.30;;;;;;5053183;28;20439;-77
2023/01/14 00:46:32;;;;;;;24.10;11.67;;;8.90;95.30;;;;;;5056982;28;20194;-76
2023/01/14 00:49:01;;;;;;;23.63;11.40;;;8.90;95.30;;;;;;5056776;28;20194;-78
2023/01/14 00:51:31;;;;;;;29.93;11.63;;;8.90;95.30;;;;;;5057589;28;20190;-78
2023/01/14 00:54:00;;;;;;;25.20;10.70;;;8.90;95.30;;;;;;5071646;28;20272;-77
2023/01/14 00:56:29;;;;;;;28.07;12.13;;;9.00;95.30;;;;;;5059878;28;20206;-77
2023/01/14 00:58:58;;;;;;;28.07;11.33;;;9.00;95.20;;;;;;5067227;28;20191;-77
2023/01/14 01:01:26;;;;;;;24.37;11.60;;;9.00;95.20;;;;;;5059084;28;20717;-78
2023/01/14 01:03:57;;;;;;;26.80;11.47;;;9.00;95.10;;;;;;5066648;28;20281;-79
2023/01/14 01:06:27;;;;;;;29.53;11.73;;;9.00;95.10;;;;;;5064842;28;20195;-77
2023/01/14 01:09:03;;;;;;;22.13;10.67;;;9.00;95.10;;;;;;5068934;28;20202;-77
2023/01/14 01:11:32;;;;;;;24.53;11.60;;;9.00;95.10;;;;;;5065986;28;20737;-78
2023/01/14 01:14:00;;;;;;;27.40;11.57;;;9.00;95.10;;;;;;5068360;28;20190;-76
2023/01/14 01:16:29;;;;;;;20.60;10.47;;;9.00;95.00;;;;;;5063987;28;20198;-78
2023/01/14 01:18:58;;;;;;;25.43;11.70;;;8.90;95.00;;;;;;5061696;28;20194;-78
2023/01/14 01:21:27;;;;;;;20.37;10.93;;;9.00;94.90;;;;;;5062202;28;20192;-77
2023/01/14 01:23:55;;;;;;;21.73;10.40;;;9.00;95.00;;;;;;5069395;28;20190;-76
2023/01/14 01:26:26;;;;;;;27.03;11.10;;;8.90;94.90;;;;;;5063650;28;20594;-78
2023/01/14 01:28:56;;;;;;;22.43;10.80;;;9.00;94.90;;;;;;5063321;28;20190;-77
2023/01/14 01:31:25;;;;;;;20.83;10.40;;;9.00;95.00;;;;;;5062475;28;20283;-78
2023/01/14 01:33:53;;;;;;;23.33;11.80;;;9.00;95.00;;;;;;5071645;28;20262;-76
2023/01/14 01:36:23;;;;;;;27.00;11.87;;;9.00;94.90;;;;;;5068423;28;20190;-79
2023/01/14 01:38:52;;;;;;;22.07;10.00;;;9.00;94.90;;;;;;5070494;28;20182;-79
2023/01/14 01:41:22;;;;;;;19.17;10.00;;;8.90;94.80;;;;;;5070704;28;20183;-77
2023/01/14 01:44:04;;;;;;;22.17;10.90;;;8.90;94.80;;;;;;5072969;28;20248;-79
2023/01/14 01:46:32;;;;;;;24.00;12.37;;;8.90;94.80;;;;;;5066832;28;20459;-76
2023/01/14 01:49:06;;;;;;;18.83;10.30;;;9.00;95.00;;;;;;5060389;28;20282;-76
2023/01/14 01:51:40;;;;;;;20.27;10.67;;;8.90;95.00;;;;;;5064237;28;20202;-79
2023/01/14 01:54:09;;;;;;;20.07;9.77;;;9.00;94.90;;;;;;5070322;28;20217;-78
2023/01/14 01:56:39;;;;;;;20.77;9.97;;;9.00;94.80;;;;;;5061761;28;20191;-77
2023/01/14 01:59:11;;;;;;;20.77;9.97;;;8.90;94.80;;;;;;5074023;28;20564;-77
2023/01/14 02:01:42;;;;;;;19.77;10.50;;;9.00;94.80;;;;;;5062815;28;20190;-77
2023/01/14 02:04:11;;;;;;;20.57;10.03;;;8.90;94.70;;;;;;5067429;28;20195;-78
2023/01/14 02:06:40;;;;;;;19.30;10.23;;;8.90;94.70;;;;;;5067985;28;20197;-76
2023/01/14 02:09:08;;;;;;;23.37;10.77;;;8.90;94.70;;;;;;5067681;28;20650;-79
2023/01/14 02:12:04;;;;;;;21.17;10.23;;;8.90;94.70;;;;;;5070997;28;20261;-77
2023/01/14 02:14:51;;;;;;;22.73;10.63;;;8.90;94.70;;;;;;5062246;28;20901;-78
2023/01/14 02:17:32;;;;;;;21.50;11.33;;;8.90;94.70;;;;;;5065056;28;20279;-78
2023/01/14 02:20:21;;;;;;;19.70;9.23;;;9.00;94.70;;;;;;5066543;28;20217;-77
2023/01/14 02:23:17;;;;;;;22.37;10.00;;;8.90;94.70;;;;;;5058213;28;20661;-77
2023/01/14 02:26:10;;;;;;;20.60;10.10;;;9.00;94.80;;;;;;5057430;28;20255;-77
2023/01/14 02:28:56;;;;;;;18.70;9.77;;;9.00;94.70;;;;;;5072048;28;20190;-77
2023/01/14 02:31:30;;;;;;;23.30;10.37;;;9.00;94.70;;;;;;5060984;28;20275;-78
2023/01/14 02:34:03;;;;;;;22.57;10.30;;;9.00;94.70;;;;;;5064260;28;20240;-79
2023/01/14 02:36:37;;;;;;;21.03;10.63;;;9.00;94.70;;;;;;5058496;28;20617;-77
2023/01/14 02:39:13;;;;;;;22.37;9.73;;;9.00;94.60;;;;;;5069594;28;20623;-78
2023/01/14 02:44:38;;;;;;;23.93;10.30;;;8.90;94.50;;;;;;5062378;28;20191;-78
2023/01/14 02:47:13;;;;;;;20.77;10.10;;;9.00;94.50;;;;;;5057488;28;20190;-78
2023/01/14 02:49:46;;;;;;;20.13;9.87;;;8.90;94.90;;;;;;5058540;28;20190;-78
2023/01/14 02:52:14;;;;;;;21.07;10.20;;;8.90;94.60;;;;;;5054813;28;20223;-77
2023/01/14 02:54:53;;;;;;;22.97;10.67;;;8.90;94.50;;;;;;5058372;28;20754;-77
2023/01/14 02:57:41;;;;;;;24.00;12.13;;;8.90;94.60;;;;;;5072536;28;20194;-78
2023/01/14 03:00:22;;;;;;;21.80;11.00;;;8.90;94.70;;;;;;5067331;28;20197;-77
2023/01/14 03:03:13;;;;;;;25.20;11.43;;;8.90;94.70;;;;;;5060674;28;20604;-78
2023/01/14 03:05:58;;;;;;;22.57;10.80;;;8.90;94.70;;;;;;5065581;28;20194;-77
2023/01/14 03:08:34;;;;;;;24.07;11.23;;;8.90;94.70;;;;;;5068049;28;20201;-78
2023/01/14 03:11:04;;;;;;;22.50;10.87;;;8.90;94.70;;;;;;5065807;28;20259;-77
2023/01/14 03:13:41;;;;;;;20.07;10.90;;;8.90;94.70;;;;;;5066798;28;20195;-77
2023/01/14 03:16:16;;;;;;;20.47;10.40;;;8.90;94.70;;;;;;5069078;28;20197;-76
2023/01/14 03:18:52;;;;;;;19.95;10.48;;;8.80;94.70;;;;;;5062668;28;20435;-79
2023/01/14 03:21:24;;;;;;;20.07;10.23;;;8.80;94.70;;;;;;5065106;28;20209;-78
2023/01/14 03:23:59;;;;;;;26.67;9.53;;;8.80;94.70;;;;;;5070571;28;20189;-77
2023/01/14 03:26:32;;;;;;;23.97;10.83;;;8.80;94.80;;;;;;5066490;28;20706;-77
2023/01/14 03:29:02;;;;;;;19.43;9.77;;;8.90;94.80;;;;;;5065417;28;20197;-78
2023/01/14 03:31:34;;;;;;;22.45;11.90;;;8.90;94.80;;;;;;5062665;28;20803;-78
2023/01/14 03:34:10;;;;;;;19.17;9.83;;;8.90;94.80;;;;;;5068158;28;20200;-77
2023/01/14 03:36:40;;;;;;;20.20;9.67;;;8.90;94.80;;;;;;5062593;28;20212;-78
2023/01/14 03:39:13;;;;;;;18.83;10.23;;;8.90;94.80;;;;;;5056509;28;20210;-77
2023/01/14 03:44:37;;;;;;;18.87;10.23;;;8.90;94.80;;;;;;5057025;28;20709;-77
2023/01/14 03:47:05;;;;;;;20.50;9.90;;;8.90;94.80;;;;;;5061999;28;20232;-77
2023/01/14 03:49:35;;;;;;;21.17;9.83;;;8.90;94.70;;;;;;5069968;28;20197;-77
2023/01/14 03:52:10;;;;;;;20.00;10.50;;;8.90;94.70;;;;;;5064147;28;20214;-77
2023/01/14 03:54:44;;;;;;;19.70;10.43;;;9.00;94.70;;;;;;5075433;28;20616;-76
2023/01/14 03:57:16;;;;;;;19.53;9.87;;;8.90;94.70;;;;;;5067464;28;20195;-76
2023/01/14 03:59:50;;;;;;;18.83;9.17;;;8.90;94.60;;;;;;5059526;28;20199;-77
2023/01/14 04:02:20;;;;;;;18.17;8.97;;;8.90;94.50;;;;;;5064836;28;20187;-78
2023/01/14 04:04:51;;;;;;;20.67;10.07;;;8.90;94.50;;;;;;5072394;28;20198;-77
2023/01/14 04:07:20;;;;;;;22.07;9.90;;;9.00;94.60;;;;;;5064460;28;20203;-79
2023/01/14 04:09:48;;;;;;;20.70;9.97;;;9.00;94.60;;;;;;5066164;28;20255;-78
2023/01/14 04:12:16;;;;;;;21.63;10.17;;;9.00;94.60;;;;;;5059530;28;20551;-78
2023/01/14 04:17:31;;;;;;;22.00;10.87;;;9.00;94.60;;;;;;5051422;28;20226;-78
2023/01/14 04:20:00;;;;;;;19.83;10.00;;;8.90;94.50;;;;;;5076616;28;20195;-76
2023/01/14 04:22:29;;;;;;;20.73;9.87;;;8.90;94.40;;;;;;5059961;28;20687;-80
2023/01/14 04:24:59;;;;;;;21.73;10.60;;;8.90;94.50;;;;;;5067173;28;20186;-78
2023/01/14 04:27:27;;;;;;;18.97;10.40;;;8.90;94.50;;;;;;5064196;28;20531;-76
2023/01/14 04:29:56;;;;;;;21.33;10.87;;;8.90;94.50;;;;;;5065512;28;20749;-77
2023/01/14 04:32:24;;;;;;;24.43;11.17;;;8.90;94.50;;;;;;5070017;28;20249;-77
2023/01/14 04:34:52;;;;;;;20.23;10.57;;;8.80;94.50;;;;;;5063671;28;20190;-77
2023/01/14 04:37:22;;;;;;;21.70;10.67;;;8.80;94.50;;;;;;5059788;28;20647;-78
2023/01/14 04:39:52;;;;;;;23.07;11.13;;;8.70;94.50;;;;;;5066352;28;20198;-79
2023/01/14 04:42:30;;;;;;;24.03;11.17;;;8.70;94.60;;;;;;5074522;28;20189;-78
2023/01/14 04:45:00;;;;;;;26.40;11.77;;;8.70;94.60;;;;;;5060911;28;20210;-78
2023/01/14 04:47:29;;;;;;;24.40;11.83;;;8.70;94.70;;;;;;5059144;28;20186;-78
2023/01/14 04:49:58;;;;;;;22.63;11.63;;;8.70;94.70;;;;;;5057921;28;20256;-76
2023/01/14 04:52:27;;;;;;;22.83;12.20;;;8.70;94.80;;;;;;5060252;28;20248;-77
2023/01/14 04:54:55;;;;;;;24.13;11.83;;;8.70;94.80;;;;;;5067313;28;20191;-77
2023/01/14 04:57:24;;;;;;;24.87;12.63;;;8.60;94.90;;;;;;5074125;28;20241;-78
2023/01/14 04:59:52;;;;;;;27.17;12.57;;;8.60;94.90;;;;;;5073797;28;20190;-77
2023/01/14 05:02:20;;;;;;;25.40;12.30;;;8.60;94.90;;;;;;5064196;28;20276;-79
2023/01/14 05:04:49;;;;;;;26.10;12.33;;;8.60;94.90;;;;;;5066754;28;20186;-77
2023/01/14 05:07:17;;;;;;;27.27;12.50;;;8.60;95.00;;;;;;5063521;28;20191;-78
2023/01/14 05:09:46;;;;;;;23.63;11.90;;;8.60;95.00;;;;;;5066304;28;20256;-78
2023/01/14 05:12:15;;;;;;;26.50;12.70;;;8.60;95.00;;;;;;5067515;28;20303;-79
2023/01/14 05:14:43;;;;;;;23.97;11.57;;;8.60;95.10;;;;;;5060154;28;20190;-76
2023/01/14 05:17:12;;;;;;;27.87;12.90;;;8.60;95.10;;;;;;5072262;28;20272;-79
2023/01/14 05:19:41;;;;;;;25.93;12.70;;;8.70;95.10;;;;;;5068413;28;20195;-77
2023/01/14 05:22:09;;;;;;;29.63;13.50;;;8.60;95.10;;;;;;5064441;28;21262;-77
2023/01/14 05:24:38;;;;;;;24.97;12.67;;;8.60;95.10;;;;;;5065213;28;20198;-78
2023/01/14 05:27:08;;;;;;;23.17;11.77;;;8.60;95.10;;;;;;5070487;28;20182;-77
2023/01/14 05:29:38;;;;;;;25.50;12.30;;;8.60;95.10;;;;;;5076506;28;20259;-77
2023/01/14 05:32:06;;;;;;;28.30;12.93;;;8.60;95.10;;;;;;5070884;28;20214;-77
2023/01/14 05:34:34;;;;;;;28.13;13.63;;;8.60;95.10;;;;;;5072136;28;20214;-77
2023/01/14 05:37:03;;;;;;;22.80;12.00;;;8.60;95.20;;;;;;5061087;28;20250;-77
2023/01/14 05:39:31;;;;;;;29.17;13.27;;;8.60;95.20;;;;;;5070580;28;20237;-78
2023/01/14 05:47:32;;;;;;;27.47;12.97;;;8.60;95.20;;;;;;5067259;28;20251;-78
2023/01/14 05:50:00;;;;;;;29.30;14.07;;;8.60;95.20;;;;;;5070418;28;20257;-77
2023/01/14 05:52:28;;;;;;;32.47;14.20;;;8.60;95.20;;;;;;5064468;28;20287;-78
2023/01/14 05:54:56;;;;;;;27.80;12.97;;;8.60;95.30;;;;;;5062205;28;20186;-77
2023/01/14 05:57:25;;;;;;;30.10;13.53;;;8.60;95.30;;;;;;5062073;28;20194;-79
2023/01/14 05:59:56;;;;;;;26.77;13.50;;;8.60;95.30;;;;;;5077557;28;20252;-77
2023/01/14 06:07:58;;;;;;;27.27;12.83;;;8.70;95.30;;;;;;5058249;28;20257;-77
2023/01/14 06:10:26;;;;;;;25.63;12.47;;;8.70;95.30;;;;;;5066577;28;20196;-79
2023/01/14 06:13:05;;;;;;;27.90;13.37;;;8.70;95.30;;;;;;5065503;28;20815;-78
2023/01/14 06:15:36;;;;;;;29.90;12.13;;;8.70;95.30;;;;;;5055829;28;20195;-78
2023/01/14 06:18:14;;;;;;;27.83;14.82;;;8.70;95.20;;;;;;5061533;28;20444;-79
2023/01/14 06:20:43;;;;;;;26.70;12.43;;;8.70;95.30;;;;;;5058044;28;20190;-78
2023/01/14 06:23:13;;;;;;;24.10;11.20;;;8.70;95.30;;;;;;5060561;28;20190;-80
2023/01/14 06:25:45;;;;;;;23.50;11.47;;;8.70;95.20;;;;;;5060304;28;20281;-77
2023/01/14 06:28:14;;;;;;;23.80;11.20;;;8.70;95.10;;;;;;5052946;28;22549;-77
2023/01/14 06:30:44;;;;;;;21.90;10.97;;;8.70;95.10;;;;;;5069171;28;20643;-78
2023/01/14 06:33:13;;;;;;;26.80;12.63;;;8.80;95.10;;;;;;5077568;28;20218;-77
2023/01/14 06:35:42;;;;;;;23.53;11.73;;;8.80;95.00;;;;;;5067265;28;20194;-78
2023/01/14 06:38:11;;;;;;;25.87;12.47;;;8.80;95.00;;;;;;5065123;28;20199;-78
2023/01/14 06:40:41;;;;;;;31.00;14.10;;;8.80;94.90;;;;;;5073844;28;20245;-77
2023/01/14 06:43:11;;;;;;;26.43;12.50;;;8.80;94.90;;;;;;5061572;28;20640;-78
2023/01/14 06:45:39;;;;;;;25.10;12.73;;;8.80;94.90;;;;;;5069214;28;20199;-77
2023/01/14 06:48:09;;;;;;;25.57;12.60;;;8.80;94.90;;;;;;5067183;28;20252;-78
2023/01/14 06:50:37;;;;;;;27.20;12.40;;;8.90;94.90;;;;;;5067916;28;20203;-77
2023/01/14 06:53:05;;;;;;;26.23;12.23;;;8.90;94.90;;;;;;5057135;28;20250;-77
2023/01/14 06:55:33;;;;;;;26.63;13.13;;;8.90;94.90;;;;;;5069748;28;20198;-77
2023/01/14 06:58:02;;;;;;;30.53;13.27;;;8.90;94.80;;;;;;5068593;28;20622;-78
2023/01/14 07:00:30;;;;;;;31.43;13.97;;;8.90;94.80;;;;;;5063941;28;20191;-77
2023/01/14 07:02:59;;;;;;;24.77;12.77;;;8.90;94.80;;;;;;5069166;28;20662;-77
2023/01/14 07:05:28;;;;;;;29.45;14.38;;;8.90;95.10;;;;;;5061889;28;20896;-77
2023/01/14 07:07:57;;;;;;;21.27;11.33;;;8.90;95.00;;;;;;5068446;28;20217;-79
2023/01/14 07:10:25;;;;;;;23.90;11.63;;;8.90;94.80;;;;;;5061721;28;20240;-77
2023/01/14 07:12:53;;;;;;;24.50;11.80;;;8.90;94.70;;;;;;5063039;28;20629;-77
2023/01/14 07:15:22;;;;;;;25.15;12.80;;;8.90;94.70;;;;;;5064098;28;20444;-77
2023/01/14 07:17:51;;;;;;;21.97;11.53;;;8.90;94.90;;;;;;5066299;28;20202;-78
2023/01/14 07:20:19;;;;;;;20.90;10.93;;;8.90;94.70;;;;;;5068142;28;20195;-76
2023/01/14 07:22:51;;;;;;;22.07;10.83;;;8.90;94.70;;;;;;5070217;28;20225;-78
2023/01/14 07:25:19;;;;;;;24.67;11.37;;;8.90;94.70;;;;;;5075622;28;20561;-78
2023/01/14 07:27:48;;;;;;;24.90;13.15;;;8.80;94.60;;;;;;5062398;28;20468;-77
2023/01/14 07:30:17;;;;;;;23.20;11.87;;;8.80;94.60;;;;;;5063971;28;20301;-77
2023/01/14 07:32:45;;;;;;;21.80;10.97;;;8.80;94.60;;;;;;5070459;28;20740;-76
2023/01/14 07:35:13;;;;;;;24.37;12.00;;;8.80;94.60;;;;;;5066941;28;20251;-77
2023/01/14 07:37:42;;;;;;;25.70;12.00;;;8.80;94.50;;;;;;5081073;28;20194;-76
2023/01/14 07:40:13;;;;;;;22.43;11.27;;;8.80;94.60;;;;;;5075062;28;20187;-77
2023/01/14 07:42:41;;;;;;;23.43;11.70;;;8.80;94.60;;;;;;5060375;28;20647;-76
2023/01/14 07:45:10;;;;;;;25.27;11.67;;;8.80;94.60;;;;;;5063968;28;20195;-78
2023/01/14 07:47:38;;;;;;;22.27;11.00;;;8.90;94.60;;;;;;5065327;28;20229;-78
2023/01/14 07:50:08;;;;;;;20.80;10.43;;;8.80;94.50;;;;;;5067000;28;20237;-77
2023/01/14 07:52:36;;;;;;;22.60;11.57;;;8.80;94.50;;;;;;5065366;28;20868;-76
2023/01/14 07:55:05;;;;;;;17.87;9.60;;;8.80;94.60;;;;;;5060824;28;20583;-78
2023/01/14 07:57:35;;;;;;;22.10;10.20;;;8.80;94.40;;;;;;5064396;28;20580;-78
2023/01/14 08:00:06;;;;;;;21.13;10.60;;;8.80;94.40;;;;;;5060152;28;20198;-78
2023/01/14 08:02:36;;;;;;;18.90;9.47;;;8.80;94.40;;;;;;5070582;28;20240;-77
2023/01/14 08:05:05;;;;;;;20.27;10.53;;;8.80;94.40;;;;;;5061854;28;20208;-78
2023/01/14 08:07:34;;;;;;;19.17;8.60;;;8.80;94.40;;;;;;5069413;28;20186;-79
2023/01/14 08:10:02;;;;;;;17.23;8.23;;;8.80;94.30;;;;;;5073246;28;20195;-79
2023/01/14 08:12:32;;;;;;;16.77;8.67;;;8.80;94.30;;;;;;5068916;28;20255;-77
2023/01/14 08:15:02;;;;;;;16.40;8.20;;;8.80;94.20;;;;;;5066290;28;20218;-76
2023/01/14 08:17:30;;;;;;;18.93;8.50;;;8.80;94.30;;;;;;5066600;28;20279;-77
2023/01/14 08:19:58;;;;;;;15.53;7.57;;;8.80;94.30;;;;;;5069845;28;20191;-77
2023/01/14 08:22:28;;;;;;;16.43;8.03;;;8.80;94.20;;;;;;5079446;28;20291;-76
2023/01/14 08:24:56;;;;;;;17.10;8.80;;;8.80;94.10;;;;;;5076415;28;20190;-76
2023/01/14 08:27:26;;;;;;;14.57;6.80;;;8.70;94.00;;;;;;5076364;28;20264;-76
2023/01/14 08:29:55;;;;;;;16.23;7.53;;;8.80;94.10;;;;;;5078376;28;20248;-77
2023/01/14 08:32:25;;;;;;;14.80;7.30;;;8.70;94.00;;;;;;5059793;28;20268;-77
2023/01/14 08:34:53;;;;;;;14.63;7.87;;;8.80;94.10;;;;;;5058265;28;20246;-76
2023/01/14 08:37:21;;;;;;;14.23;6.87;;;8.70;94.10;;;;;;5061597;28;20216;-78
2023/01/14 08:39:50;;;;;;;14.00;6.93;;;8.80;94.10;;;;;;5063437;28;20261;-76
2023/01/14 08:42:18;;;;;;;13.53;7.23;;;8.80;94.10;;;;;;5062538;28;20641;-77
2023/01/14 08:44:46;;;;;;;16.30;8.20;;;8.80;94.10;;;;;;5062148;28;20198;-78
2023/01/14 08:47:14;;;;;;;16.10;7.70;;;8.90;94.10;;;;;;5063538;28;20252;-78
2023/01/14 08:49:44;;;;;;;14.53;8.10;;;8.90;94.10;;;;;;5061733;28;20190;-78
2023/01/14 08:52:13;;;;;;;15.83;8.17;;;8.90;94.00;;;;;;5069466;28;20209;-77
2023/01/14 08:54:41;;;;;;;15.80;7.07;;;8.90;94.00;;;;;;5073351;28;20279;-77
2023/01/14 08:57:09;;;;;;;15.20;7.70;;;8.90;94.00;;;;;;5067770;28;20240;-77
2023/01/14 08:59:38;;;;;;;15.33;7.23;;;8.90;94.00;;;;;;5059131;28;20255;-78
2023/01/14 09:02:07;;;;;;;17.13;8.37;;;8.90;93.90;;;;;;5066781;28;20284;-77
2023/01/14 09:04:36;;;;;;;13.73;7.37;;;8.90;93.80;;;;;;5061613;28;20190;-77
2023/01/14 09:18:09;;;;;;;16.20;8.03;;;9.00;93.80;;;;;;5075819;28;20647;-77
2023/01/14 09:20:40;;;;;;;19.10;8.03;;;9.00;93.80;;;;;;5064899;28;20203;-77
2023/01/14 09:23:10;;;;;;;15.67;6.97;;;9.00;93.80;;;;;;5067766;28;20190;-76
2023/01/14 09:25:39;;;;;;;13.07;7.07;;;9.10;93.90;;;;;;5068689;28;20195;-77
2023/01/14 09:28:07;;;;;;;16.73;7.60;;;9.10;93.80;;;;;;5066982;28;20522;-77
2023/01/14 09:30:35;;;;;;;16.93;7.87;;;9.10;93.80;;;;;;5074722;28;20243;-78
2023/01/14 09:33:06;;;;;;;14.70;6.87;;;9.10;93.70;;;;;;5063194;28;20190;-78
2023/01/14 09:35:35;;;;;;;17.08;8.30;;;9.10;93.80;;;;;;5066490;28;20443;-78
2023/01/14 09:38:03;;;;;;;15.40;7.70;;;9.10;93.80;;;;;;5067733;28;20199;-78
2023/01/14 09:40:36;;;;;;;15.93;7.90;;;9.20;93.80;;;;;;5077266;28;20255;-77
2023/01/14 09:43:06;;;;;;;15.83;8.30;;;9.20;93.80;;;;;;5074416;28;20233;-76
2023/01/14 09:45:35;;;;;;;18.77;9.57;;;9.20;93.80;;;;;;5078467;28;20709;-76
2023/01/14 09:48:07;;;;;;;19.47;8.23;;;9.20;93.70;;;;;;5059369;28;20194;-76
2023/01/14 09:50:47;;;;;;;20.23;9.17;;;9.20;93.70;;;;;;5070646;28;20202;-77
2023/01/14 09:53:29;;;;;;;19.47;9.47;;;9.20;93.60;;;;;;5067510;28;20297;-76
2023/01/14 09:56:02;;;;;;;17.73;8.43;;;9.20;93.60;;;;;;5074171;28;20226;-78
2023/01/14 09:58:37;;;;;;;19.20;9.00;;;9.20;93.60;;;;;;5070662;28;20600;-77
2023/01/14 10:01:18;;;;;;;19.00;8.60;;;9.20;93.60;;;;;;5076506;28;20243;-76
2023/01/14 10:03:53;;;;;;;17.67;9.10;;;9.20;93.60;;;;;;5068019;28;20285;-76
2023/01/14 10:06:21;;;;;;;17.37;9.33;;;9.20;93.60;;;;;;5073176;28;20378;-76
2023/01/14 10:08:56;;;;;;;19.67;9.83;;;9.20;93.50;;;;;;5071256;28;20440;-76
2023/01/14 10:11:28;;;;;;;18.30;8.50;;;9.20;93.60;;;;;;5068141;28;20450;-76
2023/01/14 10:14:05;;;;;;;20.13;9.73;;;9.30;93.60;;;;;;5064030;28;20248;-76
2023/01/14 10:16:39;;;;;;;14.30;7.73;;;9.30;93.50;;;;;;5067345;28;20251;-76
2023/01/14 10:19:16;;;;;;;17.03;8.63;;;9.20;93.50;;;;;;5071304;28;20666;-78
2023/01/14 10:21:48;;;;;;;14.23;7.90;;;9.30;93.50;;;;;;5073022;28;20190;-76
2023/01/14 10:24:18;;;;;;;16.67;8.17;;;9.30;93.50;;;;;;5070525;28;20724;-78
2023/01/14 10:26:50;;;;;;;18.93;8.60;;;9.30;93.50;;;;;;5069059;28;20195;-76
2023/01/14 10:29:20;;;;;;;15.13;7.60;;;9.30;93.50;;;;;;5072171;28;20269;-75
2023/01/14 10:31:54;;;;;;;16.30;8.23;;;9.30;93.30;;;;;;5059701;28;20626;-76
2023/01/14 10:34:27;;;;;;;14.50;7.73;;;9.30;93.20;;;;;;5071003;28;20256;-76
2023/01/14 10:36:56;;;;;;;15.40;8.07;;;9.30;93.30;;;;;;5059954;28;20252;-76
2023/01/14 10:39:24;;;;;;;16.83;8.13;;;9.30;93.20;;;;;;5058981;28;21721;-77
2023/01/14 10:42:00;;;;;;;17.83;8.13;;;9.30;93.20;;;;;;5067766;28;20220;-79
2023/01/14 10:44:31;;;;;;;19.13;9.75;;;9.30;93.20;;;;;;5066673;28;20932;-79
2023/01/14 10:47:02;;;;;;;18.83;8.20;;;9.20;93.30;;;;;;5061026;28;20248;-78
2023/01/14 10:49:39;;;;;;;18.93;8.77;;;9.30;93.30;;;;;;5061703;28;20259;-77
2023/01/14 10:52:24;;;;;;;19.03;9.13;;;9.30;93.30;;;;;;5062810;28;20660;-78
2023/01/14 10:54:58;;;;;;;18.07;8.43;;;9.30;93.30;;;;;;5066784;28;20268;-78
2023/01/14 10:57:30;;;;;;;19.03;8.33;;;9.30;93.30;;;;;;5070213;28;20247;-78
2023/01/14 10:59:59;;;;;;;18.43;8.97;;;9.30;93.30;;;;;;5065198;28;20338;-78
2023/01/14 11:02:35;;;;;;;19.27;9.80;;;9.30;93.30;;;;;;5073714;28;20435;-77
2023/01/14 11:05:06;;;;;;;17.20;8.73;;;9.30;93.40;;;;;;5065915;28;20190;-78
2023/01/14 11:07:38;;;;;;;16.80;8.67;;;9.40;93.40;;;;;;5059318;28;20643;-79
2023/01/14 11:10:19;;;;;;;17.77;9.23;;;9.30;93.30;;;;;;5061710;28;20199;-77
2023/01/14 11:12:49;;;;;;;15.80;8.37;;;9.30;93.20;;;;;;5057513;28;20254;-78
2023/01/14 11:15:45;;;;;;;14.53;8.27;;;9.30;93.20;;;;;;5067390;28;20210;-78
2023/01/14 11:18:23;;;;;;;16.70;8.63;;;9.30;93.10;;;;;;5064485;28;20190;-76
2023/01/14 11:21:13;;;;;;;16.50;8.17;;;9.30;93.10;;;;;;5067312;28;20244;-78
2023/01/14 11:23:46;;;;;;;18.77;9.43;;;9.30;93.10;;;;;;5067021;28;20198;-80
2023/01/14 11:26:24;;;;;;;18.87;8.73;;;9.30;93.00;;;;;;5064122;28;20190;-76
2023/01/14 11:29:01;;;;;;;16.97;8.60;;;9.30;93.10;;;;;;5064865;28;20186;-77
2023/01/14 11:31:32;;;;;;;22.07;9.63;;;9.30;93.00;;;;;;5064605;28;20194;-78
2023/01/14 11:34:00;;;;;;;24.43;10.90;;;9.30;93.10;;;;;;5065137;28;20195;-77
2023/01/14 11:36:32;;;;;;;23.13;9.83;;;9.30;93.10;;;;;;5065612;28;20677;-77
2023/01/14 11:39:02;;;;;;;23.37;9.80;;;9.20;93.00;;;;;;5064450;28;20186;-76
2023/01/14 11:41:46;;;;;;;21.63;10.03;;;9.30;93.10;;;;;;5064385;28;20198;-77
2023/01/14 11:44:25;;;;;;;19.97;9.70;;;9.20;93.10;;;;;;5057234;28;21018;-77
2023/01/14 11:47:13;;;;;;;18.63;9.03;;;9.30;93.20;;;;;;5051116;28;20194;-78
2023/01/14 11:49:42;;;;;;;19.27;8.53;;;9.30;93.20;;;;;;5059527;28;20216;-77
2023/01/14 11:52:21;;;;;;;15.17;8.20;;;9.30;93.20;;;;;;5059943;28;20194;-77
2023/01/14 11:54:51;;;;;;;19.43;9.83;;;9.30;93.20;;;;;;5063385;28;20194;-78
2023/01/14 11:57:22;;;;;;;19.47;9.43;;;9.30;93.20;;;;;;5056470;28;20652;-77
2023/01/14 11:59:53;;;;;;;19.67;9.43;;;9.30;93.20;;;;;;5062008;28;20190;-78
2023/01/14 12:02:28;;;;;;;22.53;9.93;;;9.30;93.50;;;;;;5052734;28;20286;-77
2023/01/14 12:05:00;;;;;;;22.23;9.67;;;9.30;93.10;;;;;;5064132;28;20195;-77
2023/01/14 12:07:33;;;;;;;18.13;9.47;;;9.30;93.20;;;;;;5058140;28;20240;-76
2023/01/14 12:10:05;;;;;;;18.07;9.73;;;9.30;93.20;;;;;;5065021;28;20648;-77
2023/01/14 12:16:48;;;;;;;19.47;9.50;;;9.40;93.20;;;;;;5059192;28;20198;-77
2023/01/14 12:18:32;;;;;;;24.00;11.70;;;9.40;93.20;;;;;;5068628;28;20213;-77
2023/01/14 12:21:03;;;;;;;26.33;13.10;;;9.40;93.20;;;;;;5063356;28;20186;-77
2023/01/14 12:23:40;;;;;;;21.10;9.93;;;9.40;93.20;;;;;;5063309;28;20659;-76
2023/01/14 12:26:18;;;;;;;26.95;12.82;;;9.40;93.20;;;;;;5062529;28;20463;-78
2023/01/14 12:28:53;;;;;;;22.30;10.20;;;9.40;93.30;;;;;;5057629;28;20193;-77
2023/01/14 12:31:33;;;;;;;20.27;10.17;;;9.50;93.30;;;;;;5063383;28;20194;-77
2023/01/14 12:34:08;;;;;;;19.07;9.90;;;9.50;93.30;;;;;;5061218;28;20240;-77
2023/01/14 12:36:44;;;;;;;19.93;9.10;;;9.50;93.20;;;;;;5059377;28;20343;-76
2023/01/14 12:48:12;;;;;;;22.70;11.17;;;9.60;93.20;;;;;;5056146;28;20198;-75
2023/01/14 12:50:47;;;;;;;22.50;10.93;;;9.70;93.20;;;;;;5062194;28;21243;-77
2023/01/14 12:53:20;;;;;;;21.57;9.57;;;9.70;93.10;;;;;;5064085;28;20263;-76
2023/01/14 12:55:51;;;;;;;24.17;10.53;;;9.80;93.10;;;;;;5058371;28;20236;-76
2023/01/14 12:58:22;;;;;;;23.63;10.33;;;9.80;93.10;;;;;;5058448;28;20190;-78
2023/01/14 13:00:52;;;;;;;23.87;11.83;;;9.90;93.20;;;;;;5062171;28;20191;-77
2023/01/14 13:03:27;;;;;;;22.93;11.10;;;9.90;93.20;;;;;;5057290;28;20204;-76
2023/01/14 13:05:55;;;;;;;21.33;9.97;;;10.00;93.10;;;;;;5058110;28;20207;-75
2023/01/14 13:08:29;;;;;;;21.20;10.53;;;10.00;93.00;;;;;;5058554;28;20198;-77
2023/01/14 13:11:02;;;;;;;28.87;12.87;;;10.00;93.00;;;;;;5063981;28;20191;-77
2023/01/14 13:13:33;;;;;;;26.27;13.30;;;10.00;92.80;;;;;;5055535;28;20195;-77
2023/01/14 13:16:04;;;;;;;30.33;13.17;;;10.10;92.90;;;;;;5064916;28;20279;-76
2023/01/14 13:18:45;;;;;;;25.13;13.13;;;10.10;92.80;;;;;;5063884;28;20194;-76
2023/01/14 13:21:52;;;;;;;24.37;11.37;;;10.20;92.80;;;;;;5060923;28;20195;-76
2023/01/14 13:24:33;;;;;;;26.77;12.33;;;10.20;92.80;;;;;;5058817;28;20711;-77
2023/01/14 13:27:03;;;;;;;26.10;11.53;;;10.20;92.70;;;;;;5063499;28;20619;-76
2023/01/14 13:29:33;;;;;;;21.30;11.30;;;10.20;92.60;;;;;;5066558;28;20224;-76
2023/01/14 13:32:02;;;;;;;20.43;10.53;;;10.30;92.60;;;;;;5066408;28;20241;-76
2023/01/14 13:34:40;;;;;;;23.10;11.30;;;10.30;92.60;;;;;;5059213;28;20665;-77
2023/01/14 13:37:23;;;;;;;24.33;10.70;;;10.30;92.50;;;;;;5059174;28;20236;-77
2023/01/14 13:39:55;;;;;;;20.30;10.83;;;10.30;92.40;;;;;;5054531;28;20202;-77
2023/01/14 13:42:30;;;;;;;22.27;11.63;;;10.30;92.40;;;;;;5062566;28;20237;-77
2023/01/14 13:45:01;;;;;;;21.40;11.43;;;10.30;92.10;;;;;;5063577;28;20186;-76
2023/01/14 13:47:34;;;;;;;25.27;11.57;;;10.30;92.40;;;;;;5062625;28;20232;-77